sensor_id;sensor_type;location;lat;lon;timestamp;pressure;altitude;pressure_sealevel;temperature;humidity
1926;BME280;964;42.606;23.588;2023-04-27T00:00:27;94176.81;;;24.33;25.58
1926;BME280;964;42.606;23.588;2023-04-27T00:02:54;94184.09;;;25.12;25.08
1926;BME280;964;42.606;23.588;2023-04-27T00:05:22;94184.06;;;24.45;25.39
1926;BME280;964;42.606;23.588;2023-04-27T00:07:49;94185.94;;;25.52;24.57
1926;BME280;964;42.606;23.588;2023-04-27T00:10:16;94188.47;;;25.10;25.05
1926;BME280;964;42.606;23.588;2023-04-27T00:12:42;94176.44;;;25.20;24.81
1926;BME280;964;42.606;23.588;2023-04-27T00:15:09;94193.84;;;24.33;25.36
1926;BME280;964;42.606;23.588;2023-04-27T00:17:37;94190.91;;;25.17;24.66
1926;BME280;964;42.606;23.588;2023-04-27T00:20:04;94195.81;;;24.42;24.92
1926;BME280;964;42.606;23.588;2023-04-27T00:22:34;94199.03;;;25.35;24.52
1926;BME280;964;42.606;23.588;2023-04-27T00:25:01;94200.28;;;24.76;24.53
1926;BME280;964;42.606;23.588;2023-04-27T00:27:27;94206.44;;;24.06;25.00
1926;BME280;964;42.606;23.588;2023-04-27T00:29:54;94203.22;;;24.60;25.08
1926;BME280;964;42.606;23.588;2023-04-27T00:32:21;94199.00;;;24.99;24.50
1926;BME280;964;42.606;23.588;2023-04-27T00:34:47;94196.97;;;24.72;24.70
1926;BME280;964;42.606;23.588;2023-04-27T00:37:14;94189.81;;;25.05;24.57
1926;BME280;964;42.606;23.588;2023-04-27T00:39:43;94200.28;;;24.05;25.26
1926;BME280;964;42.606;23.588;2023-04-27T00:42:09;94200.28;;;24.05;25.24
1926;BME280;964;42.606;23.588;2023-04-27T00:44:39;94197.31;;;23.60;25.51
1926;BME280;964;42.606;23.588;2023-04-27T00:47:06;94205.56;;;24.09;25.34
1926;BME280;964;42.606;23.588;2023-04-27T00:49:33;94202.38;;;24.72;24.62
1926;BME280;964;42.606;23.588;2023-04-27T00:52:00;94201.69;;;24.50;25.02
1926;BME280;964;42.606;23.588;2023-04-27T00:54:26;94195.88;;;23.99;25.08
1926;BME280;964;42.606;23.588;2023-04-27T00:56:55;94205.78;;;24.54;24.98
1926;BME280;964;42.606;23.588;2023-04-27T00:59:22;94204.13;;;24.17;24.79
1926;BME280;964;42.606;23.588;2023-04-27T01:01:50;94208.19;;;25.01;24.18
1926;BME280;964;42.606;23.588;2023-04-27T01:04:17;94211.97;;;24.24;24.73
1926;BME280;964;42.606;23.588;2023-04-27T01:06:44;94204.66;;;24.82;24.54
1926;BME280;964;42.606;23.588;2023-04-27T01:09:11;94210.50;;;24.81;24.02
1926;BME280;964;42.606;23.588;2023-04-27T01:11:38;94212.97;;;24.48;24.68
1926;BME280;964;42.606;23.588;2023-04-27T01:14:06;94212.72;;;25.22;23.87
1926;BME280;964;42.606;23.588;2023-04-27T01:16:33;94217.25;;;24.67;24.52
1926;BME280;964;42.606;23.588;2023-04-27T01:19:00;94215.44;;;25.13;23.87
1926;BME280;964;42.606;23.588;2023-04-27T01:21:27;94212.16;;;24.78;24.41
1926;BME280;964;42.606;23.588;2023-04-27T01:23:55;94207.59;;;24.57;24.25
1926;BME280;964;42.606;23.588;2023-04-27T01:26:21;94207.47;;;24.30;24.63
1926;BME280;964;42.606;23.588;2023-04-27T01:28:48;94206.22;;;25.11;23.75
1926;BME280;964;42.606;23.588;2023-04-27T01:31:15;94215.50;;;24.12;24.41
1926;BME280;964;42.606;23.588;2023-04-27T01:33:41;94216.00;;;24.99;24.11
1926;BME280;964;42.606;23.588;2023-04-27T01:36:08;94219.63;;;24.56;24.19
1926;BME280;964;42.606;23.588;2023-04-27T01:38:36;94222.78;;;24.15;24.45
1926;BME280;964;42.606;23.588;2023-04-27T01:41:04;94221.31;;;25.03;23.77
1926;BME280;964;42.606;23.588;2023-04-27T01:43:34;94219.41;;;24.72;24.17
1926;BME280;964;42.606;23.588;2023-04-27T01:46:04;94222.78;;;24.15;24.27
1926;BME280;964;42.606;23.588;2023-04-27T01:48:32;94217.53;;;24.51;24.35
1926;BME280;964;42.606;23.588;2023-04-27T01:51:00;94216.69;;;24.81;23.43
1926;BME280;964;42.606;23.588;2023-04-27T01:53:28;94211.63;;;24.53;24.10
1926;BME280;964;42.606;23.588;2023-04-27T01:55:55;94218.41;;;24.17;23.47
1926;BME280;964;42.606;23.588;2023-04-27T01:58:23;94215.44;;;24.55;23.96
1926;BME280;964;42.606;23.588;2023-04-27T02:00:49;94231.00;;;24.11;24.13
1926;BME280;964;42.606;23.588;2023-04-27T02:03:16;94223.00;;;24.78;23.65
1926;BME280;964;42.606;23.588;2023-04-27T02:05:43;94227.31;;;24.18;24.09
1926;BME280;964;42.606;23.588;2023-04-27T02:08:09;94227.97;;;24.31;23.97
1926;BME280;964;42.606;23.588;2023-04-27T02:10:37;94238.56;;;23.94;24.18
1926;BME280;964;42.606;23.588;2023-04-27T02:13:03;94231.28;;;24.35;24.19
1926;BME280;964;42.606;23.588;2023-04-27T02:15:31;94230.28;;;23.67;24.63
1926;BME280;964;42.606;23.588;2023-04-27T02:17:59;94225.50;;;24.95;23.45
1926;BME280;964;42.606;23.588;2023-04-27T02:20:28;94228.66;;;24.93;23.29
1926;BME280;964;42.606;23.588;2023-04-27T02:22:55;94233.41;;;23.87;23.95
1926;BME280;964;42.606;23.588;2023-04-27T02:25:22;94234.41;;;24.03;24.06
1926;BME280;964;42.606;23.588;2023-04-27T02:27:49;94229.50;;;23.88;24.10
1926;BME280;964;42.606;23.588;2023-04-27T02:30:15;94218.00;;;24.59;23.53
1926;BME280;964;42.606;23.588;2023-04-27T02:32:43;94218.56;;;24.54;23.56
1926;BME280;964;42.606;23.588;2023-04-27T02:35:10;94236.63;;;23.39;24.41
1926;BME280;964;42.606;23.588;2023-04-27T02:37:37;94226.59;;;24.05;23.96
1926;BME280;964;42.606;23.588;2023-04-27T02:40:05;94227.84;;;24.13;23.73
1926;BME280;964;42.606;23.588;2023-04-27T02:42:32;94236.53;;;22.95;24.44
1926;BME280;964;42.606;23.588;2023-04-27T02:44:59;94233.56;;;23.28;24.43
1926;BME280;964;42.606;23.588;2023-04-27T02:47:25;94247.06;;;23.28;24.70
1926;BME280;964;42.606;23.588;2023-04-27T02:49:54;94248.88;;;23.65;24.13
1926;BME280;964;42.606;23.588;2023-04-27T02:52:20;94249.13;;;23.58;24.49
1926;BME280;964;42.606;23.588;2023-04-27T02:54:47;94257.44;;;24.07;23.77
1926;BME280;964;42.606;23.588;2023-04-27T02:57:13;94258.69;;;23.50;24.20
1926;BME280;964;42.606;23.588;2023-04-27T02:59:40;94260.47;;;23.19;24.75
1926;BME280;964;42.606;23.588;2023-04-27T03:02:07;94254.28;;;24.09;23.91
1926;BME280;964;42.606;23.588;2023-04-27T03:04:34;94251.13;;;24.32;23.67
1926;BME280;964;42.606;23.588;2023-04-27T03:07:02;94252.53;;;23.50;24.13
1926;BME280;964;42.606;23.588;2023-04-27T03:09:29;94260.91;;;23.64;24.29
1926;BME280;964;42.606;23.588;2023-04-27T03:11:55;94259.31;;;23.98;23.76
1926;BME280;964;42.606;23.588;2023-04-27T03:14:22;94265.28;;;22.89;24.70
1926;BME280;964;42.606;23.588;2023-04-27T03:16:49;94266.09;;;23.71;23.85
1926;BME280;964;42.606;23.588;2023-04-27T03:19:16;94279.41;;;23.06;24.48
1926;BME280;964;42.606;23.588;2023-04-27T03:21:42;94274.66;;;23.10;24.79
1926;BME280;964;42.606;23.588;2023-04-27T03:24:10;94274.72;;;23.32;23.62
1926;BME280;964;42.606;23.588;2023-04-27T03:26:37;94275.47;;;22.85;24.68
1926;BME280;964;42.606;23.588;2023-04-27T03:29:04;94283.72;;;23.41;24.02
1926;BME280;964;42.606;23.588;2023-04-27T03:31:30;94277.28;;;22.51;25.01
1926;BME280;964;42.606;23.588;2023-04-27T03:33:57;94276.72;;;22.56;24.67
1926;BME280;964;42.606;23.588;2023-04-27T03:36:24;94276.94;;;23.12;24.41
1926;BME280;964;42.606;23.588;2023-04-27T03:38:51;94280.31;;;23.50;24.26
1926;BME280;964;42.606;23.588;2023-04-27T03:41:19;94284.91;;;23.28;24.17
1926;BME280;964;42.606;23.588;2023-04-27T03:43:45;94282.91;;;23.75;24.22
1926;BME280;964;42.606;23.588;2023-04-27T03:46:13;94292.47;;;23.33;24.34
1926;BME280;964;42.606;23.588;2023-04-27T03:48:39;94292.78;;;23.48;23.74
1926;BME280;964;42.606;23.588;2023-04-27T03:51:08;94303.22;;;22.86;24.73
1926;BME280;964;42.606;23.588;2023-04-27T03:53:34;94290.50;;;24.24;23.74
1926;BME280;964;42.606;23.588;2023-04-27T03:56:01;94302.88;;;23.90;23.56
1926;BME280;964;42.606;23.588;2023-04-27T03:58:30;94299.72;;;23.70;24.09
1926;BME280;964;42.606;23.588;2023-04-27T04:00:57;94309.38;;;23.12;24.70
1926;BME280;964;42.606;23.588;2023-04-27T04:03:23;94299.00;;;23.91;23.52
1926;BME280;964;42.606;23.588;2023-04-27T04:05:50;94309.19;;;24.09;23.86
1926;BME280;964;42.606;23.588;2023-04-27T04:08:16;94311.28;;;23.49;24.24
1926;BME280;964;42.606;23.588;2023-04-27T04:10:43;94306.13;;;22.91;24.68
1926;BME280;964;42.606;23.588;2023-04-27T04:13:10;94314.09;;;24.02;23.62
1926;BME280;964;42.606;23.588;2023-04-27T04:15:38;94320.84;;;23.63;24.20
1926;BME280;964;42.606;23.588;2023-04-27T04:18:07;94326.19;;;23.41;24.68
1926;BME280;964;42.606;23.588;2023-04-27T04:20:34;94316.75;;;23.92;24.33
1926;BME280;964;42.606;23.588;2023-04-27T04:23:01;94347.06;;;22.11;24.92
1926;BME280;964;42.606;23.588;2023-04-27T04:25:27;94340.50;;;22.78;25.08
1926;BME280;964;42.606;23.588;2023-04-27T04:27:54;94330.78;;;23.78;23.91
1926;BME280;964;42.606;23.588;2023-04-27T04:30:22;94335.66;;;24.27;24.01
1926;BME280;964;42.606;23.588;2023-04-27T04:32:50;94338.66;;;23.85;24.28
1926;BME280;964;42.606;23.588;2023-04-27T04:35:17;94337.91;;;23.13;24.15
1926;BME280;964;42.606;23.588;2023-04-27T04:37:44;94340.91;;;23.40;24.74
1926;BME280;964;42.606;23.588;2023-04-27T04:40:12;94342.31;;;23.44;24.76
1926;BME280;964;42.606;23.588;2023-04-27T04:42:38;94338.69;;;24.29;23.63
1926;BME280;964;42.606;23.588;2023-04-27T04:45:06;94345.81;;;24.01;24.03
1926;BME280;964;42.606;23.588;2023-04-27T04:47:33;94350.41;;;23.57;24.31
1926;BME280;964;42.606;23.588;2023-04-27T04:50:01;94351.44;;;23.72;23.97
1926;BME280;964;42.606;23.588;2023-04-27T04:52:28;94355.81;;;23.57;24.32
1926;BME280;964;42.606;23.588;2023-04-27T04:54:55;94364.75;;;22.94;25.01
1926;BME280;964;42.606;23.588;2023-04-27T04:57:21;94373.09;;;23.72;24.17
1926;BME280;964;42.606;23.588;2023-04-27T04:59:48;94361.06;;;24.08;23.33
1926;BME280;964;42.606;23.588;2023-04-27T05:02:15;94367.25;;;24.30;23.51
1926;BME280;964;42.606;23.588;2023-04-27T05:04:41;94373.97;;;24.04;23.92
1926;BME280;964;42.606;23.588;2023-04-27T05:07:10;94373.03;;;23.51;23.46
1926;BME280;964;42.606;23.588;2023-04-27T05:09:37;94380.06;;;23.48;24.08
1926;BME280;964;42.606;23.588;2023-04-27T05:12:04;94379.44;;;23.19;24.75
1926;BME280;964;42.606;23.588;2023-04-27T05:14:31;94378.47;;;24.19;24.05
1926;BME280;964;42.606;23.588;2023-04-27T05:16:58;94388.84;;;22.76;25.16
1926;BME280;964;42.606;23.588;2023-04-27T05:19:24;94392.63;;;23.17;24.37
1926;BME280;964;42.606;23.588;2023-04-27T05:21:53;94385.59;;;23.44;24.10
1926;BME280;964;42.606;23.588;2023-04-27T05:24:21;94399.31;;;23.25;24.12
1926;BME280;964;42.606;23.588;2023-04-27T05:26:48;94388.91;;;23.61;24.17
1926;BME280;964;42.606;23.588;2023-04-27T05:29:16;94393.06;;;23.53;23.96
1926;BME280;964;42.606;23.588;2023-04-27T05:31:42;94395.84;;;23.62;23.88
1926;BME280;964;42.606;23.588;2023-04-27T05:34:09;94387.56;;;24.13;23.56
1926;BME280;964;42.606;23.588;2023-04-27T05:36:36;94390.00;;;23.98;23.76
1926;BME280;964;42.606;23.588;2023-04-27T05:39:03;94397.63;;;24.25;23.77
1926;BME280;964;42.606;23.588;2023-04-27T05:41:31;94392.53;;;22.95;24.12
1926;BME280;964;42.606;23.588;2023-04-27T05:43:58;94391.31;;;23.59;24.34
1926;BME280;964;42.606;23.588;2023-04-27T05:46:25;94385.66;;;24.57;23.38
1926;BME280;964;42.606;23.588;2023-04-27T05:48:51;94385.91;;;24.28;23.40
1926;BME280;964;42.606;23.588;2023-04-27T05:51:18;94398.84;;;24.11;23.42
1926;BME280;964;42.606;23.588;2023-04-27T05:53:45;94394.41;;;24.05;24.22
1926;BME280;964;42.606;23.588;2023-04-27T05:56:12;94392.66;;;23.76;23.81
1926;BME280;964;42.606;23.588;2023-04-27T05:58:40;94392.94;;;23.57;23.60
1926;BME280;964;42.606;23.588;2023-04-27T06:01:06;94403.25;;;23.49;24.46
1926;BME280;964;42.606;23.588;2023-04-27T06:03:33;94391.31;;;24.71;23.08
1926;BME280;964;42.606;23.588;2023-04-27T06:06:00;94401.19;;;23.87;23.83
1926;BME280;964;42.606;23.588;2023-04-27T06:08:27;94406.59;;;23.87;23.67
1926;BME280;964;42.606;23.588;2023-04-27T06:10:55;94407.31;;;23.66;24.06
1926;BME280;964;42.606;23.588;2023-04-27T06:13:21;94402.16;;;24.28;23.95
1926;BME280;964;42.606;23.588;2023-04-27T06:15:49;94402.16;;;24.28;23.74
1926;BME280;964;42.606;23.588;2023-04-27T06:18:16;94401.78;;;24.17;23.27
1926;BME280;964;42.606;23.588;2023-04-27T06:20:43;94399.91;;;24.92;23.55
1926;BME280;964;42.606;23.588;2023-04-27T06:23:10;94404.69;;;24.22;23.42
1926;BME280;964;42.606;23.588;2023-04-27T06:25:36;94399.66;;;24.55;23.40
1926;BME280;964;42.606;23.588;2023-04-27T06:28:04;94398.66;;;24.93;23.34
1926;BME280;964;42.606;23.588;2023-04-27T06:30:31;94398.53;;;24.44;23.77
1926;BME280;964;42.606;23.588;2023-04-27T06:32:59;94394.28;;;24.64;23.98
1926;BME280;964;42.606;23.588;2023-04-27T06:35:25;94393.56;;;24.95;23.49
1926;BME280;964;42.606;23.588;2023-04-27T06:37:52;94392.31;;;24.86;23.22
1926;BME280;964;42.606;23.588;2023-04-27T06:40:23;94389.00;;;25.62;22.94
1926;BME280;964;42.606;23.588;2023-04-27T06:42:50;94397.66;;;24.77;23.02
1926;BME280;964;42.606;23.588;2023-04-27T06:45:16;94390.13;;;26.19;22.65
1926;BME280;964;42.606;23.588;2023-04-27T06:47:43;94391.78;;;26.53;22.36
1926;BME280;964;42.606;23.588;2023-04-27T06:50:13;94393.25;;;25.72;22.57
1926;BME280;964;42.606;23.588;2023-04-27T06:52:41;94394.69;;;26.22;21.96
1926;BME280;964;42.606;23.588;2023-04-27T06:55:08;94395.38;;;26.68;22.26
1926;BME280;964;42.606;23.588;2023-04-27T06:57:35;94399.34;;;25.46;23.09
1926;BME280;964;42.606;23.588;2023-04-27T07:23:19;94388.06;;;23.39;25.58
1926;BME280;964;42.606;23.588;2023-04-27T07:25:46;94378.19;;;23.70;25.01
1926;BME280;964;42.606;23.588;2023-04-27T07:28:13;94379.94;;;23.64;25.06
1926;BME280;964;42.606;23.588;2023-04-27T07:30:40;94377.47;;;23.32;25.32
1926;BME280;964;42.606;23.588;2023-04-27T07:33:07;94375.47;;;24.05;24.40
1926;BME280;964;42.606;23.588;2023-04-27T07:35:34;94377.41;;;23.82;24.97
1926;BME280;964;42.606;23.588;2023-04-27T07:38:01;94375.59;;;24.35;23.85
1926;BME280;964;42.606;23.588;2023-04-27T07:40:29;94361.97;;;25.50;23.39
1926;BME280;964;42.606;23.588;2023-04-27T07:42:57;94366.13;;;24.83;24.24
1926;BME280;964;42.606;23.588;2023-04-27T07:45:24;94363.00;;;25.43;23.13
1926;BME280;964;42.606;23.588;2023-04-27T07:47:56;94360.09;;;25.96;23.21
1926;BME280;964;42.606;23.588;2023-04-27T07:50:24;94364.31;;;26.06;22.16
1926;BME280;964;42.606;23.588;2023-04-27T07:52:51;94367.34;;;26.44;22.43
1926;BME280;964;42.606;23.588;2023-04-27T07:55:18;94347.81;;;27.95;21.43
1926;BME280;964;42.606;23.588;2023-04-27T07:57:47;94350.56;;;27.71;21.33
1926;BME280;964;42.606;23.588;2023-04-27T08:00:14;94345.69;;;27.75;21.11
1926;BME280;964;42.606;23.588;2023-04-27T08:02:40;94349.66;;;28.81;21.03
1926;BME280;964;42.606;23.588;2023-04-27T08:05:08;94354.13;;;26.88;21.56
1926;BME280;964;42.606;23.588;2023-04-27T08:07:34;94357.38;;;27.43;20.93
1926;BME280;964;42.606;23.588;2023-04-27T08:10:02;94347.81;;;27.95;21.56
1926;BME280;964;42.606;23.588;2023-04-27T08:12:28;94355.94;;;27.81;21.15
1926;BME280;964;42.606;23.588;2023-04-27T08:14:57;94360.97;;;27.49;20.55
1926;BME280;964;42.606;23.588;2023-04-27T08:17:23;94343.09;;;29.22;21.03
1926;BME280;964;42.606;23.588;2023-04-27T08:19:51;94354.78;;;28.49;20.92
1926;BME280;964;42.606;23.588;2023-04-27T08:22:17;94347.31;;;29.23;19.83
1926;BME280;964;42.606;23.588;2023-04-27T08:24:44;94338.81;;;29.50;19.70
1926;BME280;964;42.606;23.588;2023-04-27T08:27:11;94362.38;;;29.18;19.80
1926;BME280;964;42.606;23.588;2023-04-27T08:29:38;94349.78;;;30.11;18.87
1926;BME280;964;42.606;23.588;2023-04-27T08:32:06;94336.94;;;29.97;18.50
1926;BME280;964;42.606;23.588;2023-04-27T08:34:33;94343.50;;;30.05;19.16
1926;BME280;964;42.606;23.588;2023-04-27T08:37:00;94349.84;;;28.77;19.29
1926;BME280;964;42.606;23.588;2023-04-27T08:39:28;94349.78;;;29.91;19.70
1926;BME280;964;42.606;23.588;2023-04-27T08:41:55;94350.97;;;29.69;19.74
1926;BME280;964;42.606;23.588;2023-04-27T08:44:22;94342.88;;;28.91;19.35
1926;BME280;964;42.606;23.588;2023-04-27T08:46:49;94337.72;;;30.23;19.02
1926;BME280;964;42.606;23.588;2023-04-27T08:49:17;94347.88;;;29.97;19.55
1926;BME280;964;42.606;23.588;2023-04-27T08:51:44;94338.44;;;29.98;19.34
1926;BME280;964;42.606;23.588;2023-04-27T08:54:11;94351.97;;;29.87;19.68
1926;BME280;964;42.606;23.588;2023-04-27T08:56:38;94350.53;;;30.57;19.18
1926;BME280;964;42.606;23.588;2023-04-27T08:59:12;94351.19;;;30.27;18.62
1926;BME280;964;42.606;23.588;2023-04-27T09:01:42;94341.63;;;30.62;18.53
1926;BME280;964;42.606;23.588;2023-04-27T09:04:09;94340.28;;;30.78;18.85
1926;BME280;964;42.606;23.588;2023-04-27T09:06:37;94345.91;;;30.43;19.48
1926;BME280;964;42.606;23.588;2023-04-27T09:09:04;94345.59;;;29.40;18.80
1926;BME280;964;42.606;23.588;2023-04-27T09:11:33;94340.50;;;30.75;18.57
1926;BME280;964;42.606;23.588;2023-04-27T09:14:02;94345.91;;;30.43;18.50
1926;BME280;964;42.606;23.588;2023-04-27T09:16:30;94331.88;;;31.55;17.33
1926;BME280;964;42.606;23.588;2023-04-27T09:18:57;94327.31;;;32.60;17.42
1926;BME280;964;42.606;23.588;2023-04-27T09:21:25;94322.56;;;33.16;17.71
1926;BME280;964;42.606;23.588;2023-04-27T09:23:54;94332.06;;;33.26;16.70
1926;BME280;964;42.606;23.588;2023-04-27T09:26:22;94327.59;;;33.17;17.04
1926;BME280;964;42.606;23.588;2023-04-27T09:28:51;94320.31;;;32.81;17.36
1926;BME280;964;42.606;23.588;2023-04-27T09:31:18;94329.97;;;32.43;17.25
1926;BME280;964;42.606;23.588;2023-04-27T09:33:53;94335.47;;;31.73;17.52
1926;BME280;964;42.606;23.588;2023-04-27T09:36:21;94336.81;;;29.86;19.15
1926;BME280;964;42.606;23.588;2023-04-27T09:38:49;94331.53;;;30.02;19.50
1926;BME280;964;42.606;23.588;2023-04-27T09:41:18;94335.25;;;29.44;18.84
1926;BME280;964;42.606;23.588;2023-04-27T09:43:46;94344.03;;;29.89;18.99
1926;BME280;964;42.606;23.588;2023-04-27T09:46:13;94330.00;;;31.36;18.47
1926;BME280;964;42.606;23.588;2023-04-27T09:48:40;94309.09;;;33.18;17.03
1926;BME280;964;42.606;23.588;2023-04-27T09:51:07;94309.84;;;32.68;17.65
1926;BME280;964;42.606;23.588;2023-04-27T09:53:36;94314.31;;;33.10;17.30
1926;BME280;964;42.606;23.588;2023-04-27T09:56:19;94309.84;;;32.74;17.09
1926;BME280;964;42.606;23.588;2023-04-27T10:01:54;94327.69;;;30.92;18.60
1926;BME280;964;42.606;23.588;2023-04-27T10:04:44;94320.81;;;30.71;18.34
1926;BME280;964;42.606;23.588;2023-04-27T10:07:17;94323.22;;;30.17;18.87
1926;BME280;964;42.606;23.588;2023-04-27T10:09:46;94324.72;;;30.95;18.60
1926;BME280;964;42.606;23.588;2023-04-27T10:12:15;94324.69;;;30.58;18.99
1926;BME280;964;42.606;23.588;2023-04-27T10:14:50;94320.09;;;30.76;19.01
1926;BME280;964;42.606;23.588;2023-04-27T10:17:18;94318.72;;;30.34;18.44
1926;BME280;964;42.606;23.588;2023-04-27T10:19:56;94305.31;;;31.30;18.48
1926;BME280;964;42.606;23.588;2023-04-27T10:22:23;94323.19;;;30.89;17.96
1926;BME280;964;42.606;23.588;2023-04-27T10:24:50;94322.81;;;30.76;19.03
1926;BME280;964;42.606;23.588;2023-04-27T10:27:18;94318.41;;;30.84;18.60
1926;BME280;964;42.606;23.588;2023-04-27T10:29:49;94321.34;;;29.83;19.46
1926;BME280;964;42.606;23.588;2023-04-27T10:32:19;94319.91;;;30.53;19.04
1926;BME280;964;42.606;23.588;2023-04-27T10:34:47;94320.34;;;30.26;19.63
1926;BME280;964;42.606;23.588;2023-04-27T10:37:15;94315.25;;;31.70;18.38
1926;BME280;964;42.606;23.588;2023-04-27T10:39:45;94303.75;;;32.25;18.05
1926;BME280;964;42.606;23.588;2023-04-27T10:42:11;94305.28;;;32.37;17.88
1926;BME280;964;42.606;23.588;2023-04-27T10:44:38;94302.84;;;32.56;18.05
1926;BME280;964;42.606;23.588;2023-04-27T10:47:14;94313.47;;;31.19;18.05
1926;BME280;964;42.606;23.588;2023-04-27T10:49:41;94307.03;;;31.65;18.31
1926;BME280;964;42.606;23.588;2023-04-27T10:52:08;94315.69;;;30.52;18.91
1926;BME280;964;42.606;23.588;2023-04-27T10:54:35;94312.91;;;31.46;17.73
1926;BME280;964;42.606;23.588;2023-04-27T10:57:05;94318.09;;;31.02;19.03
1926;BME280;964;42.606;23.588;2023-04-27T10:59:33;94323.69;;;30.61;18.69
1926;BME280;964;42.606;23.588;2023-04-27T11:02:00;94310.63;;;31.87;17.70
1926;BME280;964;42.606;23.588;2023-04-27T11:04:36;94297.84;;;33.27;17.78
1926;BME280;964;42.606;23.588;2023-04-27T11:07:06;94290.66;;;33.98;16.81
1926;BME280;964;42.606;23.588;2023-04-27T11:09:34;94305.38;;;31.84;17.82
1926;BME280;964;42.606;23.588;2023-04-27T11:12:04;94295.38;;;32.68;17.28
1926;BME280;964;42.606;23.588;2023-04-27T11:14:31;94304.66;;;32.00;17.47
1926;BME280;964;42.606;23.588;2023-04-27T11:16:59;94298.31;;;32.31;17.08
1926;BME280;964;42.606;23.588;2023-04-27T11:19:26;94301.00;;;32.14;17.01
1926;BME280;964;42.606;23.588;2023-04-27T11:22:02;94283.34;;;34.53;15.91
1926;BME280;964;42.606;23.588;2023-04-27T11:24:30;94290.78;;;34.58;16.07
1926;BME280;964;42.606;23.588;2023-04-27T11:26:57;94287.00;;;34.25;15.44
1926;BME280;964;42.606;23.588;2023-04-27T11:29:24;94296.94;;;33.87;15.22
1926;BME280;964;42.606;23.588;2023-04-27T11:31:51;94299.63;;;33.13;16.27
1926;BME280;964;42.606;23.588;2023-04-27T11:34:19;94298.63;;;32.99;16.28
1926;BME280;964;42.606;23.588;2023-04-27T11:36:55;94303.34;;;32.99;16.49
1926;BME280;964;42.606;23.588;2023-04-27T11:39:25;94310.88;;;31.41;18.00
1926;BME280;964;42.606;23.588;2023-04-27T11:41:52;94311.16;;;31.49;17.94
1926;BME280;964;42.606;23.588;2023-04-27T11:44:24;94303.47;;;32.06;17.32
1926;BME280;964;42.606;23.588;2023-04-27T11:46:51;94314.59;;;31.92;17.58
1926;BME280;964;42.606;23.588;2023-04-27T11:49:19;94300.63;;;32.60;17.30
1926;BME280;964;42.606;23.588;2023-04-27T11:51:45;94304.09;;;32.83;16.80
1926;BME280;964;42.606;23.588;2023-04-27T11:54:13;94303.25;;;32.21;17.35
1926;BME280;964;42.606;23.588;2023-04-27T11:56:42;94314.31;;;31.73;17.02
1926;BME280;964;42.606;23.588;2023-04-27T11:59:19;94317.38;;;31.49;17.24
1926;BME280;964;42.606;23.588;2023-04-27T12:01:47;94304.28;;;32.40;16.26
1926;BME280;964;42.606;23.588;2023-04-27T12:04:14;94295.84;;;33.05;16.58
1926;BME280;964;42.606;23.588;2023-04-27T12:06:40;94285.38;;;34.46;15.69
1926;BME280;964;42.606;23.588;2023-04-27T12:09:07;94301.63;;;33.13;16.22
1926;BME280;964;42.606;23.588;2023-04-27T12:11:34;94298.84;;;33.01;16.36
1926;BME280;964;42.606;23.588;2023-04-27T12:14:02;94303.22;;;32.10;17.24
1926;BME280;964;42.606;23.588;2023-04-27T12:16:29;94302.72;;;32.06;17.20
1926;BME280;964;42.606;23.588;2023-04-27T12:18:56;94299.75;;;32.15;16.70
1926;BME280;964;42.606;23.588;2023-04-27T12:21:22;94304.06;;;32.38;17.18
1926;BME280;964;42.606;23.588;2023-04-27T12:23:49;94301.84;;;32.76;17.07
1926;BME280;964;42.606;23.588;2023-04-27T12:26:16;94297.03;;;32.10;17.13
1926;BME280;964;42.606;23.588;2023-04-27T12:28:42;94313.47;;;30.88;17.73
1926;BME280;964;42.606;23.588;2023-04-27T12:31:12;94309.03;;;30.13;18.41
1926;BME280;964;42.606;23.588;2023-04-27T12:33:39;94318.66;;;30.54;18.15
1926;BME280;964;42.606;23.588;2023-04-27T12:36:06;94316.25;;;29.90;18.21
1926;BME280;964;42.606;23.588;2023-04-27T12:38:33;94325.44;;;29.52;18.37
1926;BME280;964;42.606;23.588;2023-04-27T12:41:00;94321.59;;;30.25;18.54
1926;BME280;964;42.606;23.588;2023-04-27T12:43:27;94321.09;;;30.01;18.00
1926;BME280;964;42.606;23.588;2023-04-27T12:45:54;94318.94;;;30.88;17.50
1926;BME280;964;42.606;23.588;2023-04-27T12:48:22;94308.47;;;32.08;17.87
1926;BME280;964;42.606;23.588;2023-04-27T12:50:49;94307.66;;;31.91;17.25
1926;BME280;964;42.606;23.588;2023-04-27T12:53:15;94318.16;;;31.13;17.06
1926;BME280;964;42.606;23.588;2023-04-27T12:55:42;94304.84;;;33.00;16.57
1926;BME280;964;42.606;23.588;2023-04-27T12:58:09;94316.06;;;31.82;16.73
1926;BME280;964;42.606;23.588;2023-04-27T13:00:36;94303.13;;;31.88;16.51
1926;BME280;964;42.606;23.588;2023-04-27T13:03:02;94311.09;;;31.01;17.14
1926;BME280;964;42.606;23.588;2023-04-27T13:05:31;94308.94;;;30.28;17.95
1926;BME280;964;42.606;23.588;2023-04-27T13:07:58;94315.38;;;30.25;18.41
1926;BME280;964;42.606;23.588;2023-04-27T13:10:25;94311.38;;;31.03;17.81
1926;BME280;964;42.606;23.588;2023-04-27T13:12:51;94307.16;;;31.98;17.56
1926;BME280;964;42.606;23.588;2023-04-27T13:15:19;94313.00;;;31.26;16.96
1926;BME280;964;42.606;23.588;2023-04-27T13:17:46;94307.41;;;31.46;17.75
1926;BME280;964;42.606;23.588;2023-04-27T13:20:13;94299.88;;;33.04;16.85
1926;BME280;964;42.606;23.588;2023-04-27T13:22:41;94295.88;;;32.83;17.30
1926;BME280;964;42.606;23.588;2023-04-27T13:25:08;94307.88;;;31.93;18.29
1926;BME280;964;42.606;23.588;2023-04-27T13:27:35;94320.38;;;30.78;17.46
1926;BME280;964;42.606;23.588;2023-04-27T13:30:02;94304.22;;;32.07;17.68
1926;BME280;964;42.606;23.588;2023-04-27T13:32:29;94307.06;;;31.28;17.99
1926;BME280;964;42.606;23.588;2023-04-27T13:34:56;94308.56;;;30.66;17.88
1926;BME280;964;42.606;23.588;2023-04-27T13:37:22;94322.97;;;31.24;17.83
1926;BME280;964;42.606;23.588;2023-04-27T13:39:51;94326.88;;;30.86;17.95
1926;BME280;964;42.606;23.588;2023-04-27T13:42:17;94319.72;;;30.37;18.14
1926;BME280;964;42.606;23.588;2023-04-27T13:44:44;94320.00;;;30.96;17.58
1926;BME280;964;42.606;23.588;2023-04-27T13:47:11;94323.66;;;30.10;18.19
1926;BME280;964;42.606;23.588;2023-04-27T13:49:37;94323.09;;;31.09;17.34